Time,TemperatureF,DewpointF,PressureIn,WindDirection,WindDirectionDegrees,WindSpeedMPH,WindSpeedGustMPH,Humidity,HourlyPrecipIn,Conditions,Clouds,dailyrainin,SoftwareType,DateUTC
2013-01-11 07:00:00,34.2,32.6,29.95,SE,135,2.3,2.3,94,0.00,FEW,OVC,0.02,WeatherDisplay:10.37,2013-01-11 07:00:00,
2013-01-11 07:05:00,34.3,33.1,29.95,SE,135,5.2,6.9,95,0.00,RA,OVC,0.02,WeatherDisplay:10.37,2013-01-11 07:05:00,
2013-01-11 07:10:00,34.3,33.1,29.95,SSE,158,4.9,6.9,95,0.00,RA,OVC,0.02,WeatherDisplay:10.37,2013-01-11 07:10:00,
2013-01-11 07:15:00,34.3,33.1,29.95,SE,135,5.0,5.8,95,0.00,FEW,OVC,0.02,WeatherDisplay:10.37,2013-01-11 07:15:00,
2013-01-11 07:20:00,34.3,33.1,29.95,ESE,112,5.1,6.9,95,0.00,FEW,OVC,0.02,WeatherDisplay:10.37,2013-01-11 07:20:00,
2013-01-11 07:25:00,34.3,33.1,29.94,SSE,158,6.4,9.2,95,0.00,FEW,OVC,0.02,WeatherDisplay:10.37,2013-01-11 07:25:00,
2013-01-11 07:30:00,34.3,33.1,29.95,SE,135,6.9,11.5,95,0.00,FEW,OVC,0.02,WeatherDisplay:10.37,2013-01-11 07:30:00,
2013-01-11 07:35:00,34.3,33.1,29.95,SE,135,3.6,4.6,95,0.00,FEW,OVC,0.02,WeatherDisplay:10.37,2013-01-11 07:35:00,
2013-01-11 07:40:00,34.5,33.2,29.94,SE,135,4.9,5.8,95,0.00,FEW,OVC,0.02,WeatherDisplay:10.37,2013-01-11 07:40:00,
2013-01-11 07:45:00,34.5,33.2,29.94,SE,135,8.0,9.2,95,0.00,FEW,OVC,0.02,WeatherDisplay:10.37,2013-01-11 07:45:00,
2013-01-11 07:50:00,34.5,33.2,29.94,SSE,158,5.5,9.2,95,0.00,FEW,OVC,0.02,WeatherDisplay:10.37,2013-01-11 07:50:00,
2013-01-11 07:55:00,34.3,33.1,29.94,SE,135,7.8,10.4,95,0.02,RA,OVC,0.04,WeatherDisplay:10.37,2013-01-11 07:55:00,
2013-01-11 08:00:00,34.5,33.2,29.94,SE,135,6.5,8.1,95,0.02,RA,OVC,0.04,WeatherDisplay:10.37,2013-01-11 08:00:00,
2013-01-11 08:05:00,34.5,33.2,29.94,SE,135,6.3,9.2,95,0.02,FEW,OVC,0.04,WeatherDisplay:10.37,2013-01-11 08:05:00,
2013-01-11 08:10:00,34.5,33.2,29.94,ESE,112,4.5,6.9,95,0.02,FEW,OVC,0.04,WeatherDisplay:10.37,2013-01-11 08:10:00,
2013-01-11 08:15:00,34.5,33.2,29.94,ESE,112,5.3,9.2,95,0.02,FEW,OVC,0.04,WeatherDisplay:10.37,2013-01-11 08:15:00,
2013-01-11 08:20:00,34.7,33.4,29.93,East,90,4.7,5.8,95,0.02,BKN,OVC,0.04,WeatherDisplay:10.37,2013-01-11 08:20:00,
2013-01-11 08:25:00,34.9,33.6,29.93,East,90,7.0,8.1,95,0.02,BKN,OVC,0.04,WeatherDisplay:10.37,2013-01-11 08:25:00,
2013-01-11 08:30:00,34.9,33.6,29.93,ESE,112,8.7,10.4,95,0.02,BKN,OVC,0.04,WeatherDisplay:10.37,2013-01-11 08:30:00,
2013-01-11 08:36:00,34.9,33.6,29.93,ESE,112,7.8,11.5,95,0.02,BKN,OVC,0.04,WeatherDisplay:10.37,2013-01-11 08:36:00,
2013-01-11 08:41:00,34.9,33.6,29.93,ESE,112,6.1,8.1,95,0.02,BKN,OVC,0.04,WeatherDisplay:10.37,2013-01-11 08:41:00,
2013-01-11 08:46:00,34.9,33.6,29.93,ESE,112,7.2,9.2,95,0.02,BKN,OVC,0.04,WeatherDisplay:10.37,2013-01-11 08:46:00,
2013-01-11 08:51:00,34.9,33.6,29.93,ESE,112,6.1,6.9,95,0.02,BKN,OVC,0.04,WeatherDisplay:10.37,2013-01-11 08:51:00,
2013-01-11 08:56:00,34.9,33.6,29.93,East,90,7.0,10.4,95,0.00,BKN,OVC,0.04,WeatherDisplay:10.37,2013-01-11 08:56:00,
2013-01-11 09:01:00,35.1,33.8,29.93,East,90,4.2,6.9,95,0.00,BKN,OVC,0.04,WeatherDisplay:10.37,2013-01-11 09:01:00,
2013-01-11 09:06:00,35.2,34.0,29.93,SE,135,2.1,2.9,95,0.00,BKN,OVC,0.04,WeatherDisplay:10.37,2013-01-11 09:06:00,
2013-01-11 09:11:00,35.1,33.8,29.93,East,90,4.1,4.6,95,0.00,BKN,OVC,0.04,WeatherDisplay:10.37,2013-01-11 09:11:00,
2013-01-11 09:16:00,35.1,33.8,29.93,ENE,68,3.2,4.6,95,0.00,BKN,OVC,0.04,WeatherDisplay:10.37,2013-01-11 09:16:00,
2013-01-11 09:21:00,34.9,33.6,29.93,East,90,4.1,5.8,95,0.00,BKN,OVC,0.04,WeatherDisplay:10.37,2013-01-11 09:21:00,
2013-01-11 09:26:00,35.1,33.8,29.93,ESE,112,3.8,4.6,95,0.00,BKN,OVC,0.04,WeatherDisplay:10.37,2013-01-11 09:26:00,
2013-01-11 09:31:00,35.2,34.0,29.93,ESE,112,7.3,9.2,95,0.00,BKN,OVC,0.04,WeatherDisplay:10.37,2013-01-11 09:31:00,
2013-01-11 09:36:00,35.4,34.1,29.92,East,90,6.2,8.1,95,0.00,BKN,OVC,0.04,WeatherDisplay:10.37,2013-01-11 09:36:00,
2013-01-11 09:41:00,35.4,34.1,29.92,ENE,68,5.3,8.1,95,0.00,BKN,OVC,0.04,WeatherDisplay:10.37,2013-01-11 09:41:00,
2013-01-11 09:46:00,35.8,34.5,29.92,SE,135,3.0,4.6,95,0.00,BKN,OVC,0.04,WeatherDisplay:10.37,2013-01-11 09:46:00,
2013-01-11 09:51:00,35.8,34.8,29.91,East,90,6.2,8.1,96,0.00,BKN,OVC,0.04,WeatherDisplay:10.37,2013-01-11 09:51:00,
2013-01-11 09:56:00,35.8,34.8,29.91,ESE,112,4.1,8.1,96,0.00,BKN,OVC,0.04,WeatherDisplay:10.37,2013-01-11 09:56:00,
2013-01-11 10:01:00,36.0,34.9,29.91,ESE,112,6.4,8.0,96,0.00,BKN,OVC,0.04,WeatherDisplay:10.37,2013-01-11 10:01:00,
2013-01-11 10:06:00,36.1,35.1,29.91,ESE,112,4.6,6.9,96,0.00,BKN,OVC,0.04,WeatherDisplay:10.37,2013-01-11 10:06:00,
2013-01-11 10:11:00,36.3,35.3,29.91,ESE,112,5.2,8.1,96,0.00,BKN,OVC,0.04,WeatherDisplay:10.37,2013-01-11 10:11:00,
2013-01-11 10:16:00,36.3,35.3,29.91,ENE,68,6.3,6.9,96,0.00,BKN,OVC,0.04,WeatherDisplay:10.37,2013-01-11 10:16:00,
2013-01-11 10:21:00,36.7,35.6,29.91,SSE,158,7.4,10.4,96,0.00,BKN,OVC,0.04,WeatherDisplay:10.37,2013-01-11 10:21:00,
2013-01-11 10:26:00,36.9,35.8,29.91,ESE,112,7.1,9.2,96,0.00,BKN,OVC,0.04,WeatherDisplay:10.37,2013-01-11 10:26:00,
2013-01-11 10:31:00,37.2,36.2,29.91,SE,135,7.5,11.5,96,0.00,BKN,OVC,0.04,WeatherDisplay:10.37,2013-01-11 10:31:00,
2013-01-11 10:36:00,37.4,36.4,29.91,ESE,112,7.6,12.7,96,0.00,BKN,OVC,0.04,WeatherDisplay:10.37,2013-01-11 10:36:00,
2013-01-11 10:41:00,37.6,36.5,29.91,ESE,112,4.6,9.2,96,0.00,BKN,OVC,0.04,WeatherDisplay:10.37,2013-01-11 10:41:00,
2013-01-11 10:46:00,37.8,36.7,29.91,SSE,158,7.2,9.2,96,0.00,BKN,OVC,0.04,WeatherDisplay:10.37,2013-01-11 10:46:00,
2013-01-11 10:51:00,37.9,36.9,29.91,SE,135,6.5,6.9,96,0.00,BKN,OVC,0.04,WeatherDisplay:10.37,2013-01-11 10:51:00,
2013-01-11 10:56:00,38.1,37.1,29.90,SSE,158,5.8,9.2,96,0.00,BKN,OVC,0.04,WeatherDisplay:10.37,2013-01-11 10:56:00,
2013-01-11 11:01:00,38.5,37.4,29.91,SSE,158,7.0,10.4,96,0.00,BKN,OVC,0.04,WeatherDisplay:10.37,2013-01-11 11:01:00,
2013-01-11 11:06:00,38.7,37.6,29.90,SE,135,7.5,13.8,96,0.00,BKN,OVC,0.04,WeatherDisplay:10.37,2013-01-11 11:06:00,
2013-01-11 11:11:00,39.0,38.0,29.90,SE,135,11.3,15.0,96,0.00,BKN,OVC,0.04,WeatherDisplay:10.37,2013-01-11 11:11:00,
2013-01-11 11:16:00,39.0,38.0,29.90,SE,135,8.6,11.5,96,0.00,BKN,OVC,0.04,WeatherDisplay:10.37,2013-01-11 11:16:00,
2013-01-11 11:21:00,39.4,38.3,29.89,SSE,158,6.4,10.4,96,0.00,BKN,OVC,0.04,WeatherDisplay:10.37,2013-01-11 11:21:00,
2013-01-11 11:26:00,39.6,38.5,29.89,ESE,112,7.0,13.8,96,0.00,BKN,OVC,0.04,WeatherDisplay:10.37,2013-01-11 11:26:00,
2013-01-11 11:31:00,39.7,38.7,29.89,SSE,158,6.9,6.9,96,0.00,BKN,OVC,0.04,WeatherDisplay:10.37,2013-01-11 11:31:00,
2013-01-11 11:36:00,39.7,38.7,29.89,ESE,112,4.4,11.5,96,0.00,BKN,OVC,0.04,WeatherDisplay:10.37,2013-01-11 11:36:00,
2013-01-11 11:41:00,39.7,38.7,29.88,ESE,112,6.3,12.7,96,0.00,BKN,OVC,0.04,WeatherDisplay:10.37,2013-01-11 11:41:00,
2013-01-11 11:46:00,39.9,38.9,29.88,ESE,112,7.0,10.4,96,0.00,BKN,OVC,0.04,WeatherDisplay:10.37,2013-01-11 11:46:00,
2013-01-11 11:51:00,39.9,38.9,29.89,SE,135,7.8,11.5,96,0.00,BKN,OVC,0.04,WeatherDisplay:10.37,2013-01-11 11:51:00,
2013-01-11 11:56:00,40.1,39.1,29.88,SE,135,5.7,8.1,96,0.00,BKN,OVC,0.04,WeatherDisplay:10.37,2013-01-11 11:56:00,
2013-01-11 12:01:00,40.3,39.2,29.88,ESE,112,7.3,10.7,96,0.00,CLR,OVC,0.04,WeatherDisplay:10.37,2013-01-11 12:01:00,
2013-01-11 12:06:00,40.6,39.6,29.88,ESE,112,6.9,8.1,96,0.00,CLR,OVC,0.04,WeatherDisplay:10.37,2013-01-11 12:06:00,
2013-01-11 12:11:00,40.8,39.8,29.88,SE,135,8.5,10.4,96,0.00,CLR,OVC,0.04,WeatherDisplay:10.37,2013-01-11 12:11:00,
2013-01-11 12:16:00,40.8,39.8,29.88,SE,135,5.2,6.9,96,0.00,CLR,OVC,0.04,WeatherDisplay:10.37,2013-01-11 12:16:00,
2013-01-11 12:21:00,41.2,40.1,29.87,South,180,6.9,9.2,96,0.00,CLR,OVC,0.04,WeatherDisplay:10.37,2013-01-11 12:21:00,
2013-01-11 12:26:00,41.4,40.3,29.87,SE,135,8.2,11.5,96,0.00,CLR,OVC,0.04,WeatherDisplay:10.37,2013-01-11 12:26:00,
2013-01-11 12:31:00,41.5,40.5,29.86,SE,135,5.7,10.4,96,0.00,CLR,OVC,0.04,WeatherDisplay:10.37,2013-01-11 12:31:00,
2013-01-11 12:36:00,41.7,40.7,29.86,ESE,112,6.4,11.5,96,0.00,CLR,OVC,0.04,WeatherDisplay:10.37,2013-01-11 12:36:00,
2013-01-11 12:42:00,41.9,40.8,29.87,SE,135,5.4,11.5,96,0.00,CLR,OVC,0.04,WeatherDisplay:10.37,2013-01-11 12:42:00,
2013-01-11 12:47:00,42.1,41.0,29.86,ESE,112,7.4,10.4,96,0.00,CLR,OVC,0.04,WeatherDisplay:10.37,2013-01-11 12:47:00,
2013-01-11 12:52:00,42.1,41.0,29.86,SE,135,4.3,11.5,96,0.00,CLR,OVC,0.04,WeatherDisplay:10.37,2013-01-11 12:52:00,
2013-01-11 12:57:00,42.4,41.4,29.85,SSE,158,5.3,8.1,96,0.00,CLR,OVC,0.04,WeatherDisplay:10.37,2013-01-11 12:57:00,
2013-01-11 13:02:00,42.4,41.4,29.85,SE,135,7.9,8.1,96,0.00,CLR,OVC,0.04,WeatherDisplay:10.37,2013-01-11 13:02:00,
2013-01-11 13:07:00,42.6,41.6,29.85,SSE,158,8.3,15.0,96,0.00,CLR,OVC,0.04,WeatherDisplay:10.37,2013-01-11 13:07:00,
2013-01-11 13:12:00,43.0,41.9,29.84,SE,135,6.6,10.9,96,0.00,CLR,OVC,0.04,WeatherDisplay:10.37,2013-01-11 13:12:00,
2013-01-11 13:17:00,43.0,41.9,29.84,ESE,112,5.3,6.9,96,0.00,CLR,OVC,0.04,WeatherDisplay:10.37,2013-01-11 13:17:00,
2013-01-11 13:22:00,43.2,42.1,29.84,East,90,7.1,10.4,96,0.00,CLR,OVC,0.04,WeatherDisplay:10.37,2013-01-11 13:22:00,
2013-01-11 13:27:00,43.3,42.3,29.83,ESE,112,2.8,6.9,96,0.00,CLR,OVC,0.04,WeatherDisplay:10.37,2013-01-11 13:27:00,
2013-01-11 13:32:00,43.5,42.5,29.83,ESE,112,5.4,5.8,96,0.00,CLR,OVC,0.04,WeatherDisplay:10.37,2013-01-11 13:32:00,
2013-01-11 13:37:00,43.7,42.6,29.83,SSE,158,4.6,6.9,96,0.00,CLR,OVC,0.04,WeatherDisplay:10.37,2013-01-11 13:37:00,
2013-01-11 13:42:00,43.9,42.8,29.83,SE,135,10.9,16.1,96,0.00,CLR,OVC,0.04,WeatherDisplay:10.37,2013-01-11 13:42:00,
2013-01-11 13:47:00,43.9,42.8,29.82,SSE,158,9.2,12.7,96,0.00,CLR,OVC,0.04,WeatherDisplay:10.37,2013-01-11 13:47:00,
2013-01-11 13:52:00,44.2,43.2,29.83,ESE,112,8.7,11.5,96,0.00,CLR,OVC,0.04,WeatherDisplay:10.37,2013-01-11 13:52:00,
2013-01-11 13:57:00,44.2,43.2,29.83,SE,135,8.3,13.8,96,0.00,CLR,OVC,0.04,WeatherDisplay:10.37,2013-01-11 13:57:00,
2013-01-11 14:02:00,44.2,43.2,29.82,SSE,158,6.1,8.1,96,0.00,CLR,OVC,0.04,WeatherDisplay:10.37,2013-01-11 14:02:00,
2013-01-11 14:07:00,44.2,43.2,29.82,SSE,158,8.1,11.5,96,0.00,CLR,OVC,0.04,WeatherDisplay:10.37,2013-01-11 14:07:00,
2013-01-11 14:12:00,44.2,43.2,29.82,SE,135,6.2,8.1,96,0.00,CLR,OVC,0.04,WeatherDisplay:10.37,2013-01-11 14:12:00,
2013-01-11 14:17:00,44.1,43.0,29.82,ESE,112,6.1,6.9,96,0.00,CLR,OVC,0.04,WeatherDisplay:10.37,2013-01-11 14:17:00,
2013-01-11 14:22:00,43.9,42.8,29.81,SE,135,5.7,8.1,96,0.00,CLR,OVC,0.04,WeatherDisplay:10.37,2013-01-11 14:22:00,
2013-01-11 14:27:00,43.7,42.6,29.81,SE,135,4.0,8.1,96,0.00,CLR,OVC,0.04,WeatherDisplay:10.37,2013-01-11 14:27:00,
2013-01-11 14:32:00,43.7,42.6,29.81,SSE,158,6.0,8.1,96,0.00,CLR,OVC,0.04,WeatherDisplay:10.37,2013-01-11 14:32:00,
2013-01-11 14:37:00,43.5,42.2,29.81,East,90,6.3,8.1,95,0.00,CLR,OVC,0.04,WeatherDisplay:10.37,2013-01-11 14:37:00,
2013-01-11 14:42:00,43.5,42.2,29.81,SSE,158,6.3,11.5,95,0.00,CLR,OVC,0.04,WeatherDisplay:10.37,2013-01-11 14:42:00,
2013-01-11 14:47:00,43.3,42.0,29.80,SE,135,5.7,6.9,95,0.00,CLR,OVC,0.04,WeatherDisplay:10.37,2013-01-11 14:47:00,
2013-01-11 14:52:00,43.5,42.2,29.80,ESE,112,10.1,13.8,95,0.00,CLR,OVC,0.04,WeatherDisplay:10.37,2013-01-11 14:52:00,
2013-01-11 14:57:00,43.5,42.2,29.80,SSE,158,6.8,10.1,95,0.00,CLR,OVC,0.04,WeatherDisplay:10.37,2013-01-11 14:57:00,
2013-01-11 15:02:00,43.7,42.6,29.80,SE,135,8.7,10.4,96,0.00,OVC,,0.04,WeatherDisplay:10.37,2013-01-11 15:02:00,
2013-01-11 15:07:00,43.9,42.8,29.80,SE,135,7.1,8.1,96,0.00,OVC,,0.04,WeatherDisplay:10.37,2013-01-11 15:07:00,
2013-01-11 15:12:00,44.1,43.0,29.79,SE,135,9.3,11.5,96,0.00,OVC,,0.04,WeatherDisplay:10.37,2013-01-11 15:12:00,
2013-01-11 15:17:00,44.2,43.2,29.80,SE,135,9.3,12.7,96,0.00,OVC,,0.04,WeatherDisplay:10.37,2013-01-11 15:17:00,
2013-01-11 15:22:00,44.2,43.2,29.80,ESE,112,10.2,17.3,96,0.00,OVC,,0.04,WeatherDisplay:10.37,2013-01-11 15:22:00,
2013-01-11 15:27:00,44.4,43.4,29.78,ESE,112,12.3,16.1,96,0.00,OVC,,0.04,WeatherDisplay:10.37,2013-01-11 15:27:00,
2013-01-11 15:32:00,44.4,43.4,29.79,East,90,7.7,12.7,96,0.00,OVC,,0.04,WeatherDisplay:10.37,2013-01-11 15:32:00,
2013-01-11 15:37:00,44.4,43.4,29.79,SE,135,9.0,11.5,96,0.00,OVC,,0.04,WeatherDisplay:10.37,2013-01-11 15:37:00,
2013-01-11 15:42:00,44.4,43.4,29.78,SE,135,8.8,11.5,96,0.00,OVC,,0.04,WeatherDisplay:10.37,2013-01-11 15:42:00,
2013-01-11 15:47:00,44.4,43.4,29.79,SE,135,9.0,10.4,96,0.00,OVC,,0.04,WeatherDisplay:10.37,2013-01-11 15:47:00,
2013-01-11 15:52:00,44.4,43.4,29.78,SE,135,8.8,11.5,96,0.00,OVC,,0.04,WeatherDisplay:10.37,2013-01-11 15:52:00,
2013-01-11 15:57:00,44.4,43.4,29.78,SE,135,7.1,11.5,96,0.00,OVC,,0.04,WeatherDisplay:10.37,2013-01-11 15:57:00,
2013-01-11 16:02:00,44.2,43.2,29.78,SSE,158,8.3,11.5,96,0.00,OVC,,0.04,WeatherDisplay:10.37,2013-01-11 16:02:00,
2013-01-11 16:07:00,43.9,42.5,29.78,SE,135,7.3,11.8,95,0.00,OVC,,0.04,WeatherDisplay:10.37,2013-01-11 16:07:00,
2013-01-11 16:12:00,43.7,42.4,29.78,SSE,158,7.9,10.4,95,0.00,OVC,,0.04,WeatherDisplay:10.37,2013-01-11 16:12:00,
2013-01-11 16:17:00,43.5,42.2,29.78,ESE,112,6.6,10.4,95,0.00,BKN,OVC,0.04,WeatherDisplay:10.37,2013-01-11 16:17:00,
2013-01-11 16:22:00,43.3,42.0,29.78,SE,135,6.1,11.5,95,0.00,BKN,OVC,0.04,WeatherDisplay:10.37,2013-01-11 16:22:00,
2013-01-11 16:27:00,43.2,41.8,29.77,ESE,112,8.4,11.5,95,0.00,BKN,OVC,0.04,WeatherDisplay:10.37,2013-01-11 16:27:00,
2013-01-11 16:32:00,43.0,41.6,29.78,ESE,112,7.8,9.2,95,0.00,BKN,OVC,0.04,WeatherDisplay:10.37,2013-01-11 16:32:00,
2013-01-11 16:37:00,42.6,41.3,29.77,SE,135,7.2,11.2,95,0.00,BKN,OVC,0.04,WeatherDisplay:10.37,2013-01-11 16:37:00,
2013-01-11 16:42:00,42.6,41.3,29.77,ESE,112,5.8,6.9,95,0.00,BKN,OVC,0.04,WeatherDisplay:10.37,2013-01-11 16:42:00,
2013-01-11 16:47:00,42.4,41.1,29.77,ESE,112,6.7,9.2,95,0.00,BKN,OVC,0.04,WeatherDisplay:10.37,2013-01-11 16:47:00,
2013-01-11 16:52:00,42.3,40.9,29.77,ESE,112,8.5,9.6,95,0.00,BKN,OVC,0.04,WeatherDisplay:10.37,2013-01-11 16:52:00,
2013-01-11 16:57:00,42.1,40.8,29.77,ESE,112,5.7,11.5,95,0.00,BKN,OVC,0.04,WeatherDisplay:10.37,2013-01-11 16:57:00,
2013-01-11 17:02:00,42.1,40.8,29.77,SE,135,7.2,12.7,95,0.00,BKN,OVC,0.04,WeatherDisplay:10.37,2013-01-11 17:02:00,
2013-01-11 17:07:00,42.1,40.8,29.77,East,90,10.0,11.5,95,0.00,BKN,OVC,0.04,WeatherDisplay:10.37,2013-01-11 17:07:00,
2013-01-11 17:12:00,41.9,40.6,29.77,SE,135,8.7,11.5,95,0.00,BKN,OVC,0.04,WeatherDisplay:10.37,2013-01-11 17:12:00,
2013-01-11 17:17:00,41.9,40.6,29.77,SE,135,9.0,10.4,95,0.00,BKN,OVC,0.04,WeatherDisplay:10.37,2013-01-11 17:17:00,
2013-01-11 17:22:00,41.9,40.6,29.77,East,90,9.2,12.7,95,0.00,BKN,OVC,0.04,WeatherDisplay:10.37,2013-01-11 17:22:00,
2013-01-11 17:27:00,41.9,40.6,29.77,East,90,9.1,15.0,95,0.00,BKN,OVC,0.04,WeatherDisplay:10.37,2013-01-11 17:27:00,
2013-01-11 17:32:00,41.9,40.6,29.77,ESE,112,9.3,9.3,95,0.00,BKN,OVC,0.04,WeatherDisplay:10.37,2013-01-11 17:32:00,
2013-01-11 17:37:00,41.7,40.4,29.77,East,90,6.6,11.5,95,0.00,BKN,OVC,0.04,WeatherDisplay:10.37,2013-01-11 17:37:00,
2013-01-11 17:42:00,41.7,40.4,29.77,East,90,7.4,12.7,95,0.00,BKN,OVC,0.04,WeatherDisplay:10.37,2013-01-11 17:42:00,
2013-01-11 17:47:00,41.7,40.4,29.77,ESE,112,8.1,11.5,95,0.00,BKN,OVC,0.04,WeatherDisplay:10.37,2013-01-11 17:47:00,
2013-01-11 17:52:00,41.7,40.7,29.77,SE,135,5.3,9.2,96,0.00,BKN,OVC,0.04,WeatherDisplay:10.37,2013-01-11 17:52:00,
2013-01-11 17:57:00,41.7,40.7,29.77,SE,135,6.2,11.5,96,0.00,BKN,OVC,0.04,WeatherDisplay:10.37,2013-01-11 17:57:00,
2013-01-11 18:02:00,41.7,40.7,29.77,ESE,112,7.5,8.1,96,0.00,BKN,OVC,0.04,WeatherDisplay:10.37,2013-01-11 18:02:00,
2013-01-11 18:07:00,41.7,40.4,29.77,ESE,112,7.4,10.4,95,0.00,BKN,OVC,0.04,WeatherDisplay:10.37,2013-01-11 18:07:00,
2013-01-11 18:12:00,41.5,40.2,29.77,ESE,112,7.0,11.5,95,0.00,BKN,OVC,0.04,WeatherDisplay:10.37,2013-01-11 18:12:00,
2013-01-11 18:17:00,41.5,40.5,29.77,SSE,158,6.5,9.2,96,0.00,BKN,OVC,0.04,WeatherDisplay:10.37,2013-01-11 18:17:00,
2013-01-11 18:22:00,41.5,40.5,29.77,ENE,68,6.4,11.5,96,0.00,BKN,OVC,0.04,WeatherDisplay:10.37,2013-01-11 18:22:00,
2013-01-11 18:27:00,41.4,40.3,29.76,ESE,112,7.3,11.5,96,0.00,BKN,OVC,0.04,WeatherDisplay:10.37,2013-01-11 18:27:00,
2013-01-11 18:32:00,41.4,40.3,29.76,ESE,112,9.7,11.5,96,0.00,BKN,OVC,0.04,WeatherDisplay:10.37,2013-01-11 18:32:00,
2013-01-11 18:37:00,41.4,40.3,29.76,SE,135,8.7,10.4,96,0.00,BKN,OVC,0.04,WeatherDisplay:10.37,2013-01-11 18:37:00,
2013-01-11 18:42:00,41.2,40.1,29.76,ESE,112,9.2,11.5,96,0.00,BKN,OVC,0.04,WeatherDisplay:10.37,2013-01-11 18:42:00,
2013-01-11 18:47:00,41.2,40.1,29.76,ESE,112,7.6,13.4,96,0.00,BKN,OVC,0.04,WeatherDisplay:10.37,2013-01-11 18:47:00,
2013-01-11 18:52:00,41.2,40.1,29.76,ESE,112,7.8,11.5,96,0.00,BKN,OVC,0.04,WeatherDisplay:10.37,2013-01-11 18:52:00,
2013-01-11 18:57:00,41.0,39.9,29.75,ESE,112,10.5,10.5,96,0.00,BKN,OVC,0.04,WeatherDisplay:10.37,2013-01-11 18:57:00,
2013-01-11 19:02:00,40.8,39.8,29.75,East,90,6.2,10.4,96,0.00,BKN,OVC,0.04,WeatherDisplay:10.37,2013-01-11 19:02:00,
2013-01-11 19:07:00,40.8,39.8,29.75,SE,135,6.2,9.2,96,0.00,BKN,OVC,0.04,WeatherDisplay:10.37,2013-01-11 19:07:00,
2013-01-11 19:12:00,40.6,39.6,29.76,ENE,68,7.6,11.5,96,0.00,BKN,OVC,0.04,WeatherDisplay:10.37,2013-01-11 19:12:00,
2013-01-11 19:17:00,40.6,39.6,29.76,ESE,112,4.5,9.2,96,0.00,BKN,OVC,0.04,WeatherDisplay:10.37,2013-01-11 19:17:00,
2013-01-11 19:23:00,40.3,39.2,29.75,East,90,6.1,8.1,96,0.00,BKN,OVC,0.04,WeatherDisplay:10.37,2013-01-11 19:23:00,
2013-01-11 19:28:00,40.1,39.1,29.75,East,90,5.8,9.2,96,0.00,BKN,OVC,0.04,WeatherDisplay:10.37,2013-01-11 19:28:00,
2013-01-11 19:33:00,40.1,39.1,29.75,ESE,112,6.5,8.1,96,0.00,BKN,OVC,0.04,WeatherDisplay:10.37,2013-01-11 19:33:00,
2013-01-11 19:38:00,39.9,38.9,29.75,East,90,6.8,9.2,96,0.00,BKN,OVC,0.04,WeatherDisplay:10.37,2013-01-11 19:38:00,
2013-01-11 19:43:00,39.9,38.9,29.75,East,90,8.2,11.5,96,0.00,BKN,OVC,0.04,WeatherDisplay:10.37,2013-01-11 19:43:00,
2013-01-11 19:48:00,40.1,39.1,29.75,ESE,112,9.1,12.7,96,0.00,BKN,OVC,0.04,WeatherDisplay:10.37,2013-01-11 19:48:00,
2013-01-11 19:53:00,40.3,39.2,29.75,ESE,112,8.9,11.5,96,0.00,BKN,OVC,0.04,WeatherDisplay:10.37,2013-01-11 19:53:00,
2013-01-11 19:58:00,40.3,39.2,29.75,ESE,112,8.0,10.4,96,0.00,BKN,OVC,0.04,WeatherDisplay:10.37,2013-01-11 19:58:00,
2013-01-11 20:03:00,40.3,39.2,29.75,ENE,68,7.4,10.7,96,0.00,BKN,OVC,0.04,WeatherDisplay:10.37,2013-01-11 20:03:00,
2013-01-11 20:08:00,40.5,39.4,29.74,SE,135,7.9,10.4,96,0.00,BKN,OVC,0.04,WeatherDisplay:10.37,2013-01-11 20:08:00,
2013-01-11 20:13:00,40.5,39.4,29.74,ESE,112,8.6,9.2,96,0.00,BKN,OVC,0.04,WeatherDisplay:10.37,2013-01-11 20:13:00,
2013-01-11 20:18:00,40.6,39.6,29.74,ESE,112,7.3,9.2,96,0.00,BKN,OVC,0.04,WeatherDisplay:10.37,2013-01-11 20:18:00,
2013-01-11 20:23:00,40.5,39.4,29.74,ENE,68,4.9,6.9,96,0.00,BKN,OVC,0.04,WeatherDisplay:10.37,2013-01-11 20:23:00,
2013-01-11 20:28:00,40.3,39.2,29.74,ENE,68,6.2,8.1,96,0.00,BKN,OVC,0.04,WeatherDisplay:10.37,2013-01-11 20:28:00,
2013-01-11 20:33:00,40.3,39.2,29.74,ENE,68,7.0,7.0,96,0.00,BKN,OVC,0.04,WeatherDisplay:10.37,2013-01-11 20:33:00,
2013-01-11 20:38:00,40.1,39.1,29.74,ENE,68,7.3,8.1,96,0.00,BKN,OVC,0.04,WeatherDisplay:10.37,2013-01-11 20:38:00,
2013-01-11 20:43:00,40.3,39.2,29.74,ENE,68,7.2,9.2,96,0.00,BKN,OVC,0.04,WeatherDisplay:10.37,2013-01-11 20:43:00,
2013-01-11 20:48:00,40.3,39.2,29.74,ENE,68,8.6,11.5,96,0.00,BKN,OVC,0.04,WeatherDisplay:10.37,2013-01-11 20:48:00,
2013-01-11 20:53:00,40.3,39.2,29.74,East,90,11.0,12.7,96,0.00,BKN,OVC,0.04,WeatherDisplay:10.37,2013-01-11 20:53:00,
2013-01-11 20:58:00,40.6,39.6,29.74,East,90,11.0,13.8,96,0.00,BKN,OVC,0.04,WeatherDisplay:10.37,2013-01-11 20:58:00,
2013-01-11 21:03:00,40.6,39.6,29.74,ESE,112,11.3,12.7,96,0.00,BKN,OVC,0.04,WeatherDisplay:10.37,2013-01-11 21:03:00,
2013-01-11 21:08:00,40.8,39.8,29.73,East,90,7.0,10.7,96,0.00,BKN,OVC,0.04,WeatherDisplay:10.37,2013-01-11 21:08:00,
2013-01-11 21:13:00,40.8,39.8,29.73,East,90,8.7,10.4,96,0.00,BKN,OVC,0.04,WeatherDisplay:10.37,2013-01-11 21:13:00,
2013-01-11 21:18:00,40.8,39.8,29.74,ENE,68,7.6,9.2,96,0.00,BKN,OVC,0.04,WeatherDisplay:10.37,2013-01-11 21:18:00,
2013-01-11 21:23:00,40.8,39.8,29.74,SSE,158,8.0,9.2,96,0.00,BKN,OVC,0.04,WeatherDisplay:10.37,2013-01-11 21:23:00,
2013-01-11 21:28:00,40.8,39.8,29.74,East,90,9.1,13.8,96,0.00,BKN,OVC,0.04,WeatherDisplay:10.37,2013-01-11 21:28:00,
2013-01-11 21:33:00,40.8,39.8,29.74,ESE,112,8.5,10.4,96,0.00,BKN,OVC,0.04,WeatherDisplay:10.37,2013-01-11 21:33:00,
2013-01-11 21:38:00,40.8,39.8,29.73,East,90,7.9,11.5,96,0.00,BKN,OVC,0.04,WeatherDisplay:10.37,2013-01-11 21:38:00,
2013-01-11 21:43:00,40.8,39.8,29.74,East,90,8.4,13.8,96,0.00,BKN,OVC,0.04,WeatherDisplay:10.37,2013-01-11 21:43:00,
2013-01-11 21:48:00,40.8,39.8,29.74,ESE,112,7.3,11.5,96,0.00,BKN,OVC,0.04,WeatherDisplay:10.37,2013-01-11 21:48:00,
2013-01-11 21:53:00,40.6,39.6,29.74,East,90,8.5,11.5,96,0.00,BKN,OVC,0.04,WeatherDisplay:10.37,2013-01-11 21:53:00,
2013-01-11 21:58:00,40.6,39.6,29.73,ENE,68,9.0,10.4,96,0.00,BKN,OVC,0.04,WeatherDisplay:10.37,2013-01-11 21:58:00,
2013-01-11 22:03:00,40.6,39.6,29.73,ESE,112,11.1,12.7,96,0.00,BKN,OVC,0.04,WeatherDisplay:10.37,2013-01-11 22:03:00,
2013-01-11 22:08:00,40.6,39.6,29.73,ENE,68,6.0,8.1,96,0.00,BKN,OVC,0.04,WeatherDisplay:10.37,2013-01-11 22:08:00,
2013-01-11 22:13:00,40.5,39.4,29.73,NE,45,6.4,8.1,96,0.00,BKN,OVC,0.04,WeatherDisplay:10.37,2013-01-11 22:13:00,
2013-01-11 22:18:00,40.3,39.2,29.73,ENE,68,7.1,11.5,96,0.00,BKN,OVC,0.04,WeatherDisplay:10.37,2013-01-11 22:18:00,
2013-01-11 22:23:00,40.1,39.1,29.74,ENE,68,5.3,9.2,96,0.00,BKN,OVC,0.04,WeatherDisplay:10.37,2013-01-11 22:23:00,
2013-01-11 22:28:00,39.9,38.9,29.73,NE,45,7.1,12.7,96,0.00,BKN,OVC,0.04,WeatherDisplay:10.37,2013-01-11 22:28:00,
2013-01-11 22:33:00,39.9,38.9,29.73,East,90,9.0,11.5,96,0.00,BKN,OVC,0.04,WeatherDisplay:10.37,2013-01-11 22:33:00,
2013-01-11 22:38:00,39.7,38.7,29.73,East,90,9.1,12.7,96,0.00,BKN,OVC,0.04,WeatherDisplay:10.37,2013-01-11 22:38:00,
2013-01-11 22:51:00,39.6,38.5,29.73,ENE,68,8.1,8.1,96,0.00,BKN,OVC,0.04,WeatherDisplay:10.37,2013-01-11 22:51:00,
2013-01-11 22:56:00,39.4,38.3,29.73,ENE,68,9.3,11.5,96,0.00,RA,OVC,0.04,WeatherDisplay:10.37,2013-01-11 22:56:00,
2013-01-11 23:01:00,39.6,38.5,29.73,ENE,68,9.0,12.7,96,0.00,RA,OVC,0.04,WeatherDisplay:10.37,2013-01-11 23:01:00,
2013-01-11 23:06:00,39.6,38.5,29.73,ENE,68,12.7,13.8,96,0.00,BKN,OVC,0.04,WeatherDisplay:10.37,2013-01-11 23:06:00,
2013-01-11 23:11:00,39.6,38.5,29.73,East,90,13.1,15.0,96,0.00,BKN,OVC,0.04,WeatherDisplay:10.37,2013-01-11 23:11:00,
2013-01-11 23:16:00,39.6,38.5,29.73,East,90,9.7,13.8,96,0.00,BKN,OVC,0.04,WeatherDisplay:10.37,2013-01-11 23:16:00,
2013-01-11 23:21:00,39.6,38.5,29.74,East,90,9.9,11.8,96,0.00,BKN,OVC,0.04,WeatherDisplay:10.37,2013-01-11 23:21:00,
2013-01-11 23:26:00,39.6,38.5,29.73,ENE,68,8.0,9.2,96,0.00,BKN,OVC,0.04,WeatherDisplay:10.37,2013-01-11 23:26:00,
2013-01-11 23:31:00,39.6,38.5,29.73,ESE,112,11.2,11.5,96,0.00,BKN,OVC,0.04,WeatherDisplay:10.37,2013-01-11 23:31:00,
2013-01-11 23:36:00,39.7,38.7,29.73,ENE,68,8.8,9.2,96,0.00,BKN,OVC,0.04,WeatherDisplay:10.37,2013-01-11 23:36:00,
2013-01-11 23:41:00,39.7,38.7,29.73,ESE,112,7.3,9.2,96,0.00,BKN,OVC,0.04,WeatherDisplay:10.37,2013-01-11 23:41:00,
2013-01-11 23:46:00,39.7,38.7,29.73,ENE,68,8.0,10.4,96,0.00,BKN,OVC,0.04,WeatherDisplay:10.37,2013-01-11 23:46:00,
2013-01-11 23:51:00,39.9,38.9,29.73,ESE,112,5.7,8.1,96,0.00,BKN,OVC,0.04,WeatherDisplay:10.37,2013-01-11 23:51:00,
2013-01-11 23:56:00,39.9,38.9,29.73,ESE,112,7.8,9.2,96,0.00,BKN,OVC,0.04,WeatherDisplay:10.37,2013-01-11 23:56:00,